Terminal Aerodrome Forecast
Issued by NWS

Home | Current Version | Previous Version | Text Only | Print | Product List | Glossary On
Versions: 1 2 3 4 5 6 7 8 9 10 11 12 13 14 15 16 17 18 19 20 21 22 23 24 25 26 27 28
028
FTUS41 KBTV 052337
TAFPBG
TAF
KPBG 052337Z 0600/0624 34009KT P6SM OVC060
     FM060700 34007KT P6SM SCT200
     FM062200 04006KT P6SM SCT060=

USA.gov is the U.S. government's official web portal to all federal, state and local government web resources and services.